createdAt,value
2023-03-11T00:00:53.030Z,5.20
2023-03-11T00:03:21.870Z,5.20
2023-03-11T00:05:52.794Z,5.10
2023-03-11T00:08:22.096Z,5.30
2023-03-11T00:10:51.039Z,5.30
2023-03-11T00:13:17.824Z,5.40
2023-03-11T00:15:48.909Z,5.50
2023-03-11T00:18:16.095Z,5.40
2023-03-11T00:20:44.105Z,5.40
2023-03-11T00:23:11.601Z,5.40
2023-03-11T00:25:39.094Z,5.50
2023-03-11T00:28:07.323Z,5.50
2023-03-11T00:30:34.124Z,5.30
2023-03-11T00:33:01.199Z,5.10
2023-03-11T00:35:29.762Z,4.90
2023-03-11T00:43:56.566Z,4.70
2023-03-11T00:50:18.152Z,4.70
2023-03-11T00:56:06.670Z,4.80
2023-03-11T00:58:33.434Z,4.80
2023-03-11T01:01:00.155Z,4.80
2023-03-11T01:03:26.817Z,5.00
2023-03-11T01:05:53.456Z,5.00
2023-03-11T01:08:20.134Z,4.90
2023-03-11T01:10:46.802Z,4.90
2023-03-11T01:13:13.448Z,4.90
2023-03-11T01:15:40.297Z,4.80
2023-03-11T01:18:07.043Z,4.90
2023-03-11T01:20:33.867Z,5.00
2023-03-11T01:23:00.556Z,4.70
2023-03-11T01:25:27.256Z,4.60
2023-03-11T01:27:53.893Z,4.50
2023-03-11T01:30:21.718Z,4.50
2023-03-11T01:32:48.651Z,4.60
2023-03-11T01:35:16.709Z,4.50
2023-03-11T01:37:43.656Z,4.40
2023-03-11T01:40:16.472Z,4.30
2023-03-11T01:42:43.162Z,4.40
2023-03-11T01:45:30.076Z,4.60
2023-03-11T01:47:56.843Z,4.50
2023-03-11T01:50:34.178Z,4.40
2023-03-11T01:53:00.931Z,4.30
2023-03-11T01:55:28.356Z,4.30
2023-03-11T01:58:08.212Z,4.30
2023-03-11T02:27:28.678Z,4.30
2023-03-11T02:29:56.877Z,4.30
2023-03-11T02:32:24.163Z,4.30
2023-03-11T02:34:50.914Z,4.30
2023-03-11T02:37:18.102Z,4.30
2023-03-11T02:39:46.042Z,4.20
2023-03-11T02:42:18.401Z,4.40
2023-03-11T02:44:46.733Z,4.30
2023-03-11T02:47:13.434Z,4.30
2023-03-11T02:49:40.345Z,4.40
2023-03-11T02:52:07.051Z,4.30
2023-03-11T02:54:33.733Z,4.20
2023-03-11T02:57:01.498Z,4.30
2023-03-11T02:59:28.222Z,4.20
2023-03-11T03:01:54.928Z,4.20
2023-03-11T03:04:21.657Z,4.40
2023-03-11T03:06:48.395Z,4.40
2023-03-11T03:09:15.025Z,4.20
2023-03-11T03:11:41.756Z,4.20
2023-03-11T03:14:08.605Z,4.20
2023-03-11T03:16:35.301Z,4.10
2023-03-11T03:19:02.108Z,4.50
2023-03-11T03:21:28.748Z,4.30
2023-03-11T03:23:55.441Z,4.20
2023-03-11T03:26:22.048Z,4.10
2023-03-11T03:28:48.660Z,4.00
2023-03-11T03:31:15.319Z,4.20
2023-03-11T03:33:41.953Z,4.20
2023-03-11T03:36:10.608Z,4.20
2023-03-11T03:38:37.280Z,4.10
2023-03-11T03:41:04.320Z,4.00
2023-03-11T03:43:31.159Z,4.10
2023-03-11T03:45:58.555Z,4.20
2023-03-11T03:48:25.321Z,4.10
2023-03-11T03:50:51.932Z,4.10
2023-03-11T03:53:18.626Z,4.20
2023-03-11T03:55:45.249Z,4.20
2023-03-11T03:58:11.875Z,4.30
2023-03-11T04:00:39.417Z,4.20
2023-03-11T04:03:06.606Z,4.20
2023-03-11T04:05:33.244Z,4.10
2023-03-11T04:08:00.665Z,4.00
2023-03-11T04:10:28.509Z,4.00
2023-03-11T04:12:55.144Z,4.00
2023-03-11T04:15:21.756Z,3.90
2023-03-11T04:17:48.419Z,4.10
2023-03-11T04:20:15.057Z,4.10
2023-03-11T04:22:41.703Z,4.00
2023-03-11T04:25:08.619Z,4.00
2023-03-11T04:27:35.269Z,4.00
2023-03-11T04:30:01.906Z,4.00
2023-03-11T04:32:28.631Z,3.90
2023-03-11T04:34:55.333Z,3.90
2023-03-11T04:37:21.986Z,3.90
2023-03-11T04:39:50.508Z,3.90
2023-03-11T04:42:19.091Z,3.80
2023-03-11T04:44:45.685Z,3.80
2023-03-11T04:47:12.298Z,3.70
2023-03-11T04:49:38.890Z,3.60
2023-03-11T04:52:05.517Z,3.60
2023-03-11T04:54:32.103Z,3.70
2023-03-11T04:56:58.766Z,3.70
2023-03-11T04:59:25.487Z,3.70
2023-03-11T05:01:52.095Z,3.70
2023-03-11T05:04:18.754Z,3.60
2023-03-11T05:06:45.382Z,3.60
2023-03-11T05:09:12.027Z,3.60
2023-03-11T05:11:38.655Z,3.60
2023-03-11T05:14:05.301Z,3.60
2023-03-11T05:16:31.918Z,3.50
2023-03-11T05:18:58.566Z,3.50
2023-03-11T05:21:25.263Z,3.40
2023-03-11T05:23:51.871Z,3.20
2023-03-11T05:26:18.495Z,3.30
2023-03-11T05:28:45.188Z,3.30
2023-03-11T05:31:12.004Z,3.20
2023-03-11T05:33:38.722Z,3.30
2023-03-11T05:36:06.196Z,3.50
2023-03-11T05:38:32.907Z,3.60
2023-03-11T05:40:59.624Z,3.60
2023-03-11T05:43:27.539Z,3.50
2023-03-11T05:45:54.657Z,3.50
2023-03-11T05:48:21.391Z,3.40
2023-03-11T05:51:00.424Z,3.40
2023-03-11T05:53:28.276Z,3.20
2023-03-11T05:55:58.313Z,3.40
2023-03-11T05:58:25.140Z,3.50
2023-03-11T06:15:43.993Z,3.50
2023-03-11T06:18:10.651Z,3.50
2023-03-11T06:20:38.135Z,3.60
2023-03-11T06:23:05.056Z,3.60
2023-03-11T06:25:31.867Z,3.60
2023-03-11T06:28:05.849Z,3.60
2023-03-11T06:30:35.811Z,3.80
2023-03-11T06:33:02.749Z,3.60
2023-03-11T06:35:29.474Z,3.50
2023-03-11T06:51:25.874Z,3.50
2023-03-11T06:53:53.285Z,3.40
2023-03-11T06:56:23.136Z,3.60
2023-03-11T06:58:49.864Z,3.70
2023-03-11T07:01:19.115Z,3.60
2023-03-11T07:03:49.579Z,3.60
2023-03-11T07:06:22.330Z,3.60
2023-03-11T07:08:50.008Z,3.50
2023-03-11T07:11:20.226Z,3.40
2023-03-11T07:13:47.007Z,3.40
2023-03-11T07:16:15.606Z,3.50
2023-03-11T07:18:42.849Z,3.60
2023-03-11T07:21:09.616Z,3.70
2023-03-11T07:23:36.264Z,3.70
2023-03-11T07:26:03.127Z,3.70
2023-03-11T07:28:29.827Z,3.70
2023-03-11T07:30:56.848Z,3.70
2023-03-11T07:33:26.543Z,3.70
2023-03-11T07:35:53.472Z,3.80
2023-03-11T07:38:20.161Z,3.90
2023-03-11T07:40:46.829Z,4.00
2023-03-11T07:43:13.592Z,4.00
2023-03-11T07:45:44.498Z,4.10
2023-03-11T07:48:11.282Z,4.10
2023-03-11T07:50:38.072Z,4.10
2023-03-11T07:53:04.685Z,4.10
2023-03-11T07:55:31.325Z,4.20
2023-03-11T07:57:58.087Z,4.20
2023-03-11T08:00:24.826Z,4.20
2023-03-11T08:02:52.242Z,4.10
2023-03-11T08:05:20.820Z,4.00
2023-03-11T08:07:47.458Z,4.20
2023-03-11T08:10:14.150Z,4.10
2023-03-11T08:12:40.926Z,4.10
2023-03-11T08:15:07.994Z,4.30
2023-03-11T08:17:45.530Z,4.50
2023-03-11T08:20:12.312Z,4.50
2023-03-11T08:22:48.734Z,4.50
2023-03-11T08:25:22.448Z,4.60
2023-03-11T08:27:49.049Z,4.90
2023-03-11T08:30:15.745Z,4.90
2023-03-11T08:32:42.510Z,4.90
2023-03-11T08:35:09.912Z,4.80
2023-03-11T08:37:36.680Z,4.80
2023-03-11T08:40:03.713Z,4.60
2023-03-11T08:42:30.338Z,4.70
2023-03-11T08:44:56.956Z,4.80
2023-03-11T08:47:23.534Z,4.80
2023-03-11T08:49:50.264Z,4.90
2023-03-11T08:52:16.857Z,4.80
2023-03-11T08:54:43.528Z,4.70
2023-03-11T08:57:10.196Z,4.70
2023-03-11T08:59:36.930Z,5.00
2023-03-11T09:02:03.619Z,5.00
2023-03-11T09:04:30.281Z,5.10
2023-03-11T09:07:13.021Z,5.10
2023-03-11T09:09:39.640Z,5.20
2023-03-11T09:12:07.823Z,5.20
2023-03-11T09:14:35.472Z,5.20
2023-03-11T09:17:02.165Z,5.20
2023-03-11T09:19:28.915Z,5.40
2023-03-11T09:21:55.555Z,5.40
2023-03-11T09:24:22.198Z,5.40
2023-03-11T09:26:48.811Z,5.50
2023-03-11T09:29:15.424Z,5.60
2023-03-11T09:31:42.318Z,5.40
2023-03-11T09:34:10.120Z,5.40
2023-03-11T09:36:36.740Z,5.60
2023-03-11T09:39:03.429Z,5.70
2023-03-11T09:41:57.888Z,5.70
2023-03-11T09:44:32.967Z,5.60
2023-03-11T09:46:59.626Z,5.50
2023-03-11T09:49:36.833Z,5.50
2023-03-11T09:52:03.488Z,5.60
2023-03-11T09:54:34.905Z,5.60
2023-03-11T09:57:01.913Z,5.70
2023-03-11T09:59:36.884Z,5.80
2023-03-11T10:02:04.883Z,5.70
2023-03-11T10:04:50.616Z,5.80
2023-03-11T10:07:22.184Z,6.00
2023-03-11T10:09:53.295Z,6.10
2023-03-11T10:12:26.233Z,6.10
2023-03-11T10:14:58.944Z,5.90
2023-03-11T10:17:34.751Z,6.10
2023-03-11T10:20:13.051Z,6.10
2023-03-11T10:22:42.752Z,6.00
2023-03-11T10:25:11.344Z,6.00
2023-03-11T10:27:43.407Z,6.10
2023-03-11T10:30:17.733Z,6.10
2023-03-11T10:32:46.579Z,6.10
2023-03-11T10:35:17.906Z,6.00
2023-03-11T10:37:49.953Z,5.90
2023-03-11T10:40:33.304Z,5.80
2023-03-11T10:43:03.022Z,6.10
2023-03-11T10:45:32.777Z,6.50
2023-03-11T10:47:59.435Z,6.40
2023-03-11T10:50:26.183Z,6.20
2023-03-11T10:53:07.132Z,6.10
2023-03-11T10:55:34.559Z,6.10
2023-03-11T10:58:12.497Z,6.20
2023-03-11T11:00:39.148Z,6.40
2023-03-11T11:03:12.661Z,6.70
2023-03-11T11:05:39.401Z,6.50
2023-03-11T11:08:17.112Z,6.40
2023-03-11T11:10:52.337Z,6.30
2023-03-11T11:13:20.246Z,6.30
2023-03-11T11:15:54.990Z,6.40
2023-03-11T11:18:26.894Z,6.20
2023-03-11T11:20:56.561Z,6.20
2023-03-11T11:23:46.653Z,6.20
2023-03-11T11:26:21.242Z,6.30
2023-03-11T11:29:05.569Z,6.20
2023-03-11T11:31:34.024Z,6.10
2023-03-11T11:34:00.605Z,6.10
2023-03-11T11:36:31.592Z,6.30
2023-03-11T11:38:59.867Z,6.40
2023-03-11T11:41:27.470Z,6.40
2023-03-11T11:43:55.363Z,6.40
2023-03-11T11:46:30.136Z,6.30
2023-03-11T11:48:56.783Z,6.30
2023-03-11T11:51:25.517Z,6.40
2023-03-11T11:53:57.664Z,6.50
2023-03-11T11:56:27.703Z,6.20
2023-03-11T11:58:55.333Z,6.10
2023-03-11T12:01:37.251Z,6.20
2023-03-11T12:04:21.308Z,6.20
2023-03-11T12:06:53.868Z,6.30
2023-03-11T12:09:28.406Z,6.50
2023-03-11T12:12:01.357Z,6.20
2023-03-11T12:14:33.872Z,6.20
2023-03-11T12:17:03.914Z,6.30
2023-03-11T12:19:34.379Z,6.40
2023-03-11T12:22:10.135Z,6.30
2023-03-11T12:24:52.794Z,6.10
2023-03-11T12:27:27.622Z,6.20
2023-03-11T12:30:02.941Z,6.60
2023-03-11T12:32:41.674Z,6.60
2023-03-11T12:35:28.489Z,6.50
2023-03-11T12:37:55.893Z,6.70
2023-03-11T12:40:41.304Z,6.70
2023-03-11T12:43:29.988Z,7.10
2023-03-11T12:45:59.451Z,7.10
2023-03-11T12:48:27.885Z,7.00
2023-03-11T12:50:54.879Z,7.20
2023-03-11T12:53:41.189Z,7.30
2023-03-11T12:56:17.052Z,7.10
2023-03-11T12:58:49.831Z,6.80
2023-03-11T13:01:40.954Z,6.60
2023-03-11T13:04:16.943Z,6.50
2023-03-11T13:06:43.554Z,6.40
2023-03-11T13:09:16.779Z,6.30
2023-03-11T13:11:45.098Z,6.30
2023-03-11T13:14:14.886Z,6.40
2023-03-11T13:16:44.346Z,6.40
2023-03-11T13:19:26.376Z,6.40
2023-03-11T13:21:59.524Z,6.40
2023-03-11T13:24:29.454Z,6.30
2023-03-11T13:26:59.533Z,6.20
2023-03-11T13:29:26.328Z,6.40
2023-03-11T13:32:12.723Z,6.70
2023-03-11T13:34:54.850Z,7.00
2023-03-11T13:37:40.255Z,6.90
2023-03-11T13:40:13.997Z,6.70
2023-03-11T13:42:45.740Z,6.80
2023-03-11T13:45:18.645Z,6.70
2023-03-11T13:47:47.080Z,6.60
2023-03-11T13:50:18.500Z,6.50
2023-03-11T13:52:47.692Z,6.50
2023-03-11T13:55:14.389Z,6.40
2023-03-11T13:57:49.406Z,6.30
2023-03-11T14:00:17.717Z,6.30
2023-03-11T14:02:50.988Z,6.30
2023-03-11T14:05:20.641Z,6.30
2023-03-11T14:07:47.269Z,6.50
2023-03-11T14:10:20.184Z,6.70
2023-03-11T14:12:47.314Z,6.50
2023-03-11T14:15:24.093Z,6.40
2023-03-11T14:17:51.449Z,6.20
2023-03-11T14:20:22.233Z,6.20
2023-03-11T14:22:51.078Z,6.20
2023-03-11T14:25:23.228Z,6.30
2023-03-11T14:27:53.090Z,6.30
2023-03-11T14:30:21.774Z,6.30
2023-03-11T14:33:00.760Z,6.40
2023-03-11T14:35:28.131Z,6.40
2023-03-11T14:37:55.248Z,6.30
2023-03-11T14:40:21.866Z,6.30
2023-03-11T14:42:53.757Z,6.30
2023-03-11T14:45:22.916Z,6.20
2023-03-11T14:47:49.517Z,6.10
2023-03-11T14:50:20.398Z,5.90
2023-03-11T14:52:53.157Z,6.00
2023-03-11T14:55:22.440Z,6.00
2023-03-11T14:58:07.526Z,6.00
2023-03-11T15:00:36.307Z,6.10
2023-03-11T15:03:07.387Z,6.10
2023-03-11T15:05:41.802Z,6.10
2023-03-11T15:08:08.838Z,6.40
2023-03-11T15:10:36.970Z,6.30
2023-03-11T15:13:04.573Z,6.20
2023-03-11T15:15:31.326Z,6.20
2023-03-11T15:17:58.781Z,6.20
2023-03-11T15:20:25.360Z,6.20
2023-03-11T15:23:00.999Z,6.10
2023-03-11T15:25:29.798Z,6.00
2023-03-11T15:27:56.569Z,6.10
2023-03-11T15:30:25.090Z,6.20
2023-03-11T15:32:52.453Z,6.30
2023-03-11T15:35:26.741Z,6.10
2023-03-11T15:38:32.175Z,5.90
2023-03-11T15:41:03.737Z,5.90
2023-03-11T15:43:30.366Z,6.00
2023-03-11T15:45:57.989Z,5.80
2023-03-11T15:48:24.946Z,5.80
2023-03-11T15:50:55.637Z,5.80
2023-03-11T15:53:23.861Z,5.80
2023-03-11T15:55:51.602Z,5.70
2023-03-11T15:58:18.991Z,5.60
2023-03-11T16:00:56.587Z,5.40
2023-03-11T16:03:23.696Z,5.40
2023-03-11T16:05:52.851Z,5.50
2023-03-11T16:08:19.510Z,6.00
2023-03-11T16:10:46.261Z,5.90
2023-03-11T16:13:13.918Z,5.90
2023-03-11T16:15:40.684Z,5.50
2023-03-11T16:18:08.816Z,5.40
2023-03-11T16:20:38.612Z,5.30
2023-03-11T16:23:06.930Z,5.20
2023-03-11T16:25:34.888Z,5.10
2023-03-11T16:28:01.589Z,5.10
2023-03-11T16:30:29.611Z,5.10
2023-03-11T16:32:56.843Z,5.00
2023-03-11T16:35:23.894Z,4.80
2023-03-11T16:37:50.657Z,4.60
2023-03-11T16:40:20.185Z,4.50
2023-03-11T16:42:47.041Z,4.40
2023-03-11T16:45:14.936Z,4.30
2023-03-11T16:47:41.633Z,4.10
2023-03-11T16:50:09.251Z,4.10
2023-03-11T16:52:35.993Z,4.00
2023-03-11T16:55:02.754Z,3.90
2023-03-11T16:57:29.423Z,3.90
2023-03-11T16:59:56.173Z,4.00
2023-03-11T17:02:24.680Z,3.80
2023-03-11T17:04:51.409Z,3.70
2023-03-11T17:07:18.241Z,3.60
2023-03-11T17:09:44.902Z,3.50
2023-03-11T17:12:13.443Z,3.40
2023-03-11T17:14:40.225Z,3.30
2023-03-11T17:17:07.720Z,3.30
2023-03-11T17:19:34.476Z,3.30
2023-03-11T17:22:01.164Z,3.30
2023-03-11T17:24:28.242Z,3.30
2023-03-11T17:26:54.839Z,3.30
2023-03-11T17:29:21.797Z,3.30
2023-03-11T17:31:48.482Z,3.30
2023-03-11T17:34:15.212Z,3.30
2023-03-11T17:36:41.903Z,3.30
2023-03-11T17:39:08.551Z,3.30
2023-03-11T17:41:35.224Z,3.30
2023-03-11T17:44:01.888Z,3.40
2023-03-11T17:46:28.552Z,3.40
2023-03-11T17:48:55.235Z,3.40
2023-03-11T17:51:23.243Z,3.40
2023-03-11T17:53:50.258Z,3.40
2023-03-11T17:56:18.131Z,3.40
2023-03-11T17:58:44.970Z,3.40
2023-03-11T18:01:16.011Z,3.30
2023-03-11T18:03:42.956Z,3.30
2023-03-11T18:06:10.012Z,3.30
2023-03-11T18:08:36.744Z,3.30
2023-03-11T18:11:16.395Z,3.30
2023-03-11T18:13:44.195Z,3.20
2023-03-11T18:16:12.477Z,3.20
2023-03-11T18:18:40.755Z,3.20
2023-03-11T18:21:08.735Z,3.20
2023-03-11T18:23:35.621Z,3.20
2023-03-11T18:26:03.333Z,3.30
2023-03-11T18:28:30.088Z,3.30
2023-03-11T18:30:57.593Z,3.20
2023-03-11T18:33:24.279Z,3.30
2023-03-11T18:35:50.932Z,3.30
2023-03-11T18:38:17.655Z,3.30
2023-03-11T18:40:44.339Z,3.30
2023-03-11T18:43:12.573Z,3.30
2023-03-11T18:45:39.465Z,3.30
2023-03-11T18:48:06.207Z,3.30
2023-03-11T18:50:32.866Z,3.30
2023-03-11T18:53:00.027Z,3.20
2023-03-11T18:55:26.726Z,3.20
2023-03-11T18:57:53.606Z,3.20
2023-03-11T19:00:23.521Z,3.10
2023-03-11T19:02:51.198Z,3.10
2023-03-11T19:05:17.927Z,3.10
2023-03-11T19:07:44.676Z,3.20
2023-03-11T19:10:12.225Z,3.20
2023-03-11T19:12:39.973Z,3.20
2023-03-11T19:15:07.217Z,3.10
2023-03-11T19:17:33.850Z,3.00
2023-03-11T19:20:00.559Z,3.00
2023-03-11T19:22:27.189Z,3.00
2023-03-11T19:24:54.080Z,3.00
2023-03-11T19:27:20.757Z,2.90
2023-03-11T19:29:47.413Z,2.90
2023-03-11T19:32:14.089Z,2.80
2023-03-11T19:34:40.746Z,2.80
2023-03-11T19:37:07.376Z,2.80
2023-03-11T19:39:34.016Z,2.90
2023-03-11T19:42:01.060Z,2.90
2023-03-11T19:44:27.725Z,2.90
2023-03-11T19:46:54.505Z,2.90
2023-03-11T19:49:21.987Z,2.90
2023-03-11T19:51:50.651Z,2.90
2023-03-11T19:54:17.866Z,2.90
2023-03-11T19:56:44.905Z,2.90
2023-03-11T19:59:11.706Z,3.00
2023-03-11T20:01:38.454Z,3.00
2023-03-11T20:04:05.168Z,2.90
2023-03-11T20:06:31.901Z,2.90
2023-03-11T20:08:58.728Z,2.90
2023-03-11T20:11:25.542Z,2.90
2023-03-11T20:13:52.297Z,2.80
2023-03-11T20:16:19.419Z,2.70
2023-03-11T20:18:50.277Z,2.70
2023-03-11T20:21:17.116Z,2.70
2023-03-11T20:23:43.727Z,2.70
2023-03-11T20:26:12.774Z,2.70
2023-03-11T20:28:39.821Z,2.70
2023-03-11T20:31:11.085Z,2.60
2023-03-11T20:33:38.197Z,2.50
2023-03-11T20:36:06.482Z,2.50
2023-03-11T20:38:33.156Z,2.40
2023-03-11T20:40:59.872Z,2.40
2023-03-11T20:43:26.838Z,2.40
2023-03-11T20:45:53.527Z,2.40
2023-03-11T20:48:20.249Z,2.50
2023-03-11T20:50:46.903Z,2.50
2023-03-11T20:53:14.046Z,2.50
2023-03-11T20:55:40.880Z,2.50
2023-03-11T20:58:08.000Z,2.50
2023-03-11T21:00:34.752Z,2.50
2023-03-11T21:03:01.734Z,2.60
2023-03-11T21:05:28.438Z,2.60
2023-03-11T21:07:55.106Z,2.50
2023-03-11T21:10:21.881Z,2.50
2023-03-11T21:12:48.771Z,2.50
2023-03-11T21:15:15.471Z,2.50
2023-03-11T21:17:42.222Z,2.60
2023-03-11T21:20:09.201Z,2.50
2023-03-11T21:22:36.118Z,2.50
2023-03-11T21:25:03.246Z,2.40
2023-03-11T21:27:30.567Z,2.30
2023-03-11T21:29:58.007Z,2.30
2023-03-11T21:32:26.099Z,2.20
2023-03-11T21:34:59.472Z,2.10
2023-03-11T21:37:27.117Z,2.10
2023-03-11T21:39:54.014Z,1.90
2023-03-11T21:42:20.808Z,1.80
2023-03-11T21:44:47.479Z,1.80
2023-03-11T21:47:14.308Z,1.70
2023-03-11T21:49:40.920Z,1.70
2023-03-11T21:52:07.567Z,1.70
2023-03-11T21:54:34.287Z,1.70
2023-03-11T21:57:00.945Z,1.60
2023-03-11T21:59:27.664Z,1.60
2023-03-11T22:01:54.489Z,1.60
2023-03-11T22:04:21.308Z,1.60
2023-03-11T22:06:48.141Z,1.60
2023-03-11T22:09:14.981Z,1.60
2023-03-11T22:11:41.822Z,1.60
2023-03-11T22:14:08.513Z,1.70
2023-03-11T22:16:35.356Z,1.70
2023-03-11T22:19:04.303Z,1.60
2023-03-11T22:21:31.249Z,1.50
2023-03-11T22:23:58.162Z,1.40
2023-03-11T22:26:24.846Z,1.40
2023-03-11T22:28:51.484Z,1.30
2023-03-11T22:31:19.171Z,1.30
2023-03-11T22:33:46.664Z,1.30
2023-03-11T22:36:13.491Z,1.20
2023-03-11T22:38:42.229Z,1.30
2023-03-11T22:41:08.986Z,1.30
2023-03-11T22:43:36.177Z,1.30
2023-03-11T22:46:03.355Z,1.30
2023-03-11T22:48:30.276Z,1.30
2023-03-11T22:50:57.004Z,1.20
2023-03-11T22:53:24.910Z,1.30
2023-03-11T22:55:52.271Z,1.30
2023-03-11T22:58:19.060Z,1.30
2023-03-11T23:00:45.896Z,1.20
2023-03-11T23:03:12.684Z,1.20
2023-03-11T23:05:42.667Z,1.00
2023-03-11T23:08:10.730Z,0.90
2023-03-11T23:10:39.158Z,0.90
2023-03-11T23:13:05.848Z,0.90
2023-03-11T23:15:32.492Z,0.90
2023-03-11T23:17:59.076Z,0.90
2023-03-11T23:20:25.767Z,0.90
2023-03-11T23:22:52.451Z,0.90
2023-03-11T23:25:20.296Z,0.90
2023-03-11T23:27:47.058Z,0.90
2023-03-11T23:30:15.177Z,0.90
2023-03-11T23:32:41.915Z,0.90
2023-03-11T23:35:08.846Z,0.90
2023-03-11T23:37:35.529Z,0.90
2023-03-11T23:40:02.338Z,0.90
2023-03-11T23:42:29.252Z,0.80
2023-03-11T23:44:55.956Z,0.80
2023-03-11T23:47:22.640Z,0.70
2023-03-11T23:49:49.261Z,0.70
2023-03-11T23:52:15.916Z,0.70
2023-03-11T23:54:42.549Z,0.70
2023-03-11T23:57:09.236Z,0.70
2023-03-11T23:59:35.844Z,0.70
